createdAt,value
2023-04-02T00:01:00.748Z,12.33
2023-04-02T00:03:42.229Z,12.29
2023-04-02T00:06:32.763Z,12.26
2023-04-02T00:09:22.336Z,12.27
2023-04-02T00:11:55.612Z,12.26
2023-04-02T00:14:34.971Z,12.25
2023-04-02T00:17:05.578Z,12.24
2023-04-02T00:20:00.230Z,12.22
2023-04-02T00:22:33.655Z,12.16
2023-04-02T00:25:12.319Z,12.18
2023-04-02T00:27:40.177Z,12.20
2023-04-02T00:30:08.747Z,12.23
2023-04-02T00:32:37.064Z,12.23
2023-04-02T00:35:26.051Z,12.16
2023-04-02T00:37:54.569Z,12.21
2023-04-02T00:40:31.756Z,12.19
2023-04-02T00:43:04.294Z,12.18
2023-04-02T00:45:36.687Z,12.19
2023-04-02T00:48:22.201Z,12.14
2023-04-02T00:50:52.875Z,12.17
2023-04-02T00:53:28.499Z,12.18
2023-04-02T00:55:58.782Z,12.17
2023-04-02T00:58:36.697Z,12.17
2023-04-02T01:01:04.733Z,12.18
2023-04-02T01:03:36.620Z,12.20
2023-04-02T01:06:11.340Z,12.18
2023-04-02T01:08:58.861Z,12.23
2023-04-02T01:12:01.962Z,12.27
2023-04-02T01:15:07.545Z,12.32
2023-04-02T01:18:09.612Z,12.27
2023-04-02T01:21:10.350Z,12.28
2023-04-02T01:24:02.742Z,12.23
2023-04-02T01:27:02.199Z,12.20
2023-04-02T01:29:46.676Z,12.24
2023-04-02T01:32:18.705Z,12.21
2023-04-02T01:34:49.325Z,12.21
2023-04-02T01:37:49.923Z,12.20
2023-04-02T01:40:39.885Z,12.24
2023-04-02T01:43:33.681Z,12.19
2023-04-02T01:46:29.589Z,12.17
2023-04-02T01:49:00.424Z,12.19
2023-04-02T01:51:36.101Z,12.19
2023-04-02T01:54:07.610Z,12.20
2023-04-02T01:56:35.661Z,12.20
2023-04-02T01:59:05.893Z,12.18
2023-04-02T02:01:48.390Z,12.21
2023-04-02T02:04:17.542Z,12.17
2023-04-02T02:06:47.111Z,12.16
2023-04-02T02:09:27.150Z,12.14
2023-04-02T02:11:58.719Z,12.08
2023-04-02T02:14:29.227Z,12.07
2023-04-02T02:17:02.363Z,12.09
2023-04-02T02:19:42.515Z,12.10
2023-04-02T02:22:21.785Z,12.08
2023-04-02T02:24:49.554Z,12.06
2023-04-02T02:27:23.251Z,12.08
2023-04-02T02:30:38.263Z,12.05
2023-04-02T02:33:30.966Z,12.10
2023-04-02T02:36:36.796Z,12.10
2023-04-02T02:39:31.262Z,12.11
2023-04-02T02:42:31.795Z,12.15
2023-04-02T02:45:03.048Z,12.19
2023-04-02T02:47:34.916Z,12.23
2023-04-02T02:50:10.228Z,12.24
2023-04-02T02:52:39.873Z,12.23
2023-04-02T02:55:17.626Z,12.23
2023-04-02T02:58:07.553Z,12.24
2023-04-02T03:00:42.539Z,12.27
2023-04-02T03:03:23.373Z,12.27
2023-04-02T03:06:02.647Z,12.23
2023-04-02T03:08:40.084Z,12.24
2023-04-02T03:11:33.261Z,12.25
2023-04-02T03:14:48.827Z,12.19
2023-04-02T03:17:32.315Z,12.24
2023-04-02T03:20:52.100Z,12.19
2023-04-02T03:23:32.523Z,12.22
2023-04-02T03:26:20.873Z,12.18
2023-04-02T03:29:22.736Z,12.16
2023-04-02T03:32:22.924Z,12.19
2023-04-02T03:35:01.489Z,12.22
2023-04-02T03:37:46.211Z,12.23
2023-04-02T03:40:34.369Z,12.28
2023-04-02T03:43:20.528Z,12.30
2023-04-02T03:45:56.989Z,12.30
2023-04-02T03:48:43.475Z,12.25
2023-04-02T03:51:49.099Z,12.23
2023-04-02T03:54:17.318Z,12.24
2023-04-02T03:56:47.466Z,12.17
2023-04-02T03:59:37.930Z,12.11
2023-04-02T04:02:38.495Z,12.08
2023-04-02T04:05:18.768Z,12.15
2023-04-02T04:07:46.859Z,12.15
2023-04-02T04:10:22.185Z,12.14
2023-04-02T04:12:52.914Z,12.12
2023-04-02T04:15:22.134Z,12.12
2023-04-02T04:18:10.485Z,12.14
2023-04-02T04:21:00.728Z,12.17
2023-04-02T04:23:40.923Z,12.20
2023-04-02T04:26:30.984Z,12.19
2023-04-02T04:29:45.531Z,12.19
2023-04-02T04:32:31.739Z,12.24
2023-04-02T04:35:37.518Z,12.18
2023-04-02T04:38:16.607Z,12.19
2023-04-02T04:40:56.801Z,12.18
2023-04-02T04:43:51.045Z,12.15
2023-04-02T04:47:06.040Z,12.15
2023-04-02T04:49:46.508Z,12.18
2023-04-02T04:52:32.794Z,12.18
2023-04-02T04:55:01.278Z,12.16
2023-04-02T04:57:39.814Z,12.14
2023-04-02T05:00:25.645Z,12.13
2023-04-02T05:03:22.191Z,12.11
2023-04-02T05:05:50.743Z,12.11
2023-04-02T05:08:30.465Z,12.13
2023-04-02T05:11:04.730Z,12.16
2023-04-02T05:13:54.256Z,12.17
2023-04-02T05:16:41.421Z,12.19
2023-04-02T05:19:19.500Z,12.20
2023-04-02T05:21:59.819Z,12.19
2023-04-02T05:24:57.226Z,12.20
2023-04-02T05:27:54.744Z,12.20
2023-04-02T05:30:25.235Z,12.23
2023-04-02T05:33:04.910Z,12.24
2023-04-02T05:35:36.711Z,12.21
2023-04-02T05:38:06.649Z,12.16
2023-04-02T05:40:44.477Z,12.16
2023-04-02T05:43:18.836Z,12.15
2023-04-02T05:45:55.735Z,12.18
2023-04-02T05:48:35.719Z,12.15
2023-04-02T05:51:09.501Z,12.14
2023-04-02T05:53:41.598Z,12.14
2023-04-02T05:56:28.055Z,12.14
2023-04-02T05:59:27.044Z,12.11
2023-04-02T06:02:11.467Z,12.15
2023-04-02T06:04:57.665Z,12.17
2023-04-02T06:07:46.375Z,12.13
2023-04-02T06:10:25.724Z,12.23
2023-04-02T06:13:08.424Z,12.29
2023-04-02T06:15:40.724Z,12.34
2023-04-02T06:18:17.561Z,12.40
2023-04-02T06:20:46.342Z,12.46
2023-04-02T06:23:53.202Z,12.46
2023-04-02T06:26:33.351Z,12.50
2023-04-02T06:29:18.113Z,12.51
2023-04-02T06:32:00.730Z,12.52
2023-04-02T06:34:31.159Z,12.53
2023-04-02T06:37:21.169Z,12.49
2023-04-02T06:39:51.045Z,12.46
2023-04-02T06:42:34.342Z,12.41
2023-04-02T06:45:29.323Z,12.49
2023-04-02T06:48:26.341Z,12.46
2023-04-02T06:51:11.463Z,12.41
2023-04-02T06:53:51.538Z,12.39
2023-04-02T06:56:51.382Z,12.26
2023-04-02T06:59:26.202Z,12.25
2023-04-02T07:02:32.672Z,11.89
2023-04-02T07:05:09.441Z,12.04
2023-04-02T07:07:40.589Z,12.10
2023-04-02T07:10:12.782Z,12.23
2023-04-02T07:12:40.641Z,12.28
2023-04-02T07:15:14.725Z,12.40
2023-04-02T07:17:43.791Z,12.40
2023-04-02T07:20:33.756Z,12.32
2023-04-02T07:23:06.203Z,12.32
2023-04-02T07:25:33.928Z,12.36
2023-04-02T07:28:01.697Z,12.47
2023-04-02T07:30:29.167Z,12.60
2023-04-02T07:32:56.687Z,12.67
2023-04-02T07:35:24.233Z,12.63
2023-04-02T07:37:52.806Z,12.63
2023-04-02T07:40:22.869Z,12.61
2023-04-02T07:42:50.632Z,12.67
2023-04-02T07:45:18.188Z,12.70
2023-04-02T07:47:45.729Z,12.68
2023-04-02T07:50:13.450Z,12.64
2023-04-02T07:52:42.470Z,12.77
2023-04-02T07:55:15.476Z,12.94
2023-04-02T07:57:58.587Z,13.03
2023-04-02T08:00:29.048Z,13.07
2023-04-02T08:02:56.716Z,13.12
2023-04-02T08:05:24.337Z,13.22
2023-04-02T08:07:56.672Z,13.21
2023-04-02T08:10:24.721Z,13.19
2023-04-02T08:12:52.341Z,13.16
2023-04-02T08:15:19.877Z,13.15
2023-04-02T08:17:47.879Z,13.22
2023-04-02T08:20:19.022Z,13.14
2023-04-02T08:22:47.347Z,13.24
2023-04-02T08:25:15.461Z,13.30
2023-04-02T08:27:43.289Z,13.35
2023-04-02T08:30:13.947Z,13.32
2023-04-02T08:32:41.554Z,13.43
2023-04-02T08:35:12.183Z,13.44
2023-04-02T08:37:39.761Z,13.47
2023-04-02T08:40:15.983Z,13.56
2023-04-02T08:43:03.609Z,13.61
2023-04-02T08:45:50.513Z,13.79
2023-04-02T08:48:18.539Z,13.78
2023-04-02T08:50:46.312Z,13.76
2023-04-02T08:53:25.629Z,13.80
2023-04-02T08:56:33.527Z,13.94
2023-04-02T08:59:19.799Z,14.04
2023-04-02T09:02:03.686Z,14.10
2023-04-02T09:04:33.274Z,14.24
2023-04-02T09:07:00.930Z,14.24
2023-04-02T09:09:28.694Z,14.24
2023-04-02T09:12:05.317Z,14.07
2023-04-02T09:15:22.558Z,13.85
2023-04-02T09:18:00.447Z,13.95
2023-04-02T09:20:29.300Z,13.59
2023-04-02T09:22:57.687Z,13.65
2023-04-02T09:25:28.425Z,13.67
2023-04-02T09:28:02.681Z,13.75
2023-04-02T09:30:51.976Z,13.79
2023-04-02T09:33:19.498Z,13.96
2023-04-02T09:35:49.988Z,14.01
2023-04-02T09:38:31.626Z,13.99
2023-04-02T09:41:03.802Z,14.06
2023-04-02T09:43:37.902Z,14.05
2023-04-02T09:46:25.798Z,14.08
2023-04-02T09:49:03.365Z,14.06
2023-04-02T09:51:34.659Z,14.09
2023-04-02T09:54:13.473Z,14.21
2023-04-02T09:56:57.993Z,14.33
2023-04-02T09:59:25.955Z,14.40
2023-04-02T10:01:53.463Z,14.43
2023-04-02T10:04:45.015Z,14.52
2023-04-02T10:07:42.821Z,14.56
2023-04-02T10:10:31.279Z,14.74
2023-04-02T10:13:03.198Z,14.82
2023-04-02T10:15:43.530Z,14.82
2023-04-02T10:18:53.788Z,14.88
2023-04-02T10:21:37.484Z,14.93
2023-04-02T10:24:16.841Z,14.90
2023-04-02T10:27:02.549Z,14.90
2023-04-02T10:30:19.078Z,14.94
2023-04-02T10:32:56.519Z,15.08
2023-04-02T10:35:45.243Z,15.11
2023-04-02T10:38:43.108Z,15.14
2023-04-02T10:41:33.444Z,15.26
2023-04-02T10:44:39.094Z,15.33
2023-04-02T10:47:34.112Z,15.42
2023-04-02T10:50:24.290Z,15.38
2023-04-02T10:53:17.984Z,15.39
2023-04-02T10:55:58.202Z,15.44
2023-04-02T10:58:29.941Z,15.30
2023-04-02T11:01:07.890Z,15.30
2023-04-02T11:03:53.843Z,15.28
2023-04-02T11:06:28.677Z,15.36
2023-04-02T11:09:04.851Z,15.37
2023-04-02T11:11:50.800Z,15.44
2023-04-02T11:14:24.243Z,15.61
2023-04-02T11:16:54.820Z,15.74
2023-04-02T11:19:29.524Z,15.75
2023-04-02T11:22:06.634Z,15.84
2023-04-02T11:24:47.725Z,15.94
2023-04-02T11:27:24.467Z,15.99
2023-04-02T11:30:27.472Z,15.99
2023-04-02T11:33:39.824Z,15.98
2023-04-02T11:36:50.272Z,15.96
2023-04-02T11:39:59.578Z,15.98
2023-04-02T11:42:36.065Z,16.07
2023-04-02T11:45:21.993Z,16.12
2023-04-02T11:48:02.184Z,16.09
2023-04-02T11:50:31.900Z,16.10
2023-04-02T11:53:10.257Z,16.22
2023-04-02T11:55:47.383Z,16.28
2023-04-02T11:58:42.168Z,16.30
2023-04-02T12:01:50.231Z,16.42
2023-04-02T12:05:16.650Z,16.53
2023-04-02T12:08:11.882Z,16.52
2023-04-02T12:11:01.248Z,16.53
2023-04-02T12:13:40.722Z,16.56
2023-04-02T12:16:13.413Z,16.47
2023-04-02T12:18:53.707Z,16.47
2023-04-02T12:21:26.988Z,16.44
2023-04-02T12:23:59.128Z,16.44
2023-04-02T12:26:37.166Z,16.32
2023-04-02T12:29:26.698Z,16.27
2023-04-02T12:31:57.225Z,16.26
2023-04-02T12:34:29.572Z,16.17
2023-04-02T12:37:03.943Z,16.10
2023-04-02T12:39:34.102Z,16.01
2023-04-02T12:42:02.206Z,16.01
2023-04-02T12:44:31.208Z,15.99
2023-04-02T12:46:59.423Z,15.85
2023-04-02T12:49:43.083Z,15.69
2023-04-02T12:52:17.653Z,15.75
2023-04-02T12:55:02.925Z,15.64
2023-04-02T12:57:40.371Z,15.63
2023-04-02T13:00:20.891Z,15.60
2023-04-02T13:03:04.426Z,15.56
2023-04-02T13:05:54.802Z,15.41
2023-04-02T13:08:37.195Z,15.26
2023-04-02T13:11:06.189Z,15.11
2023-04-02T13:13:40.519Z,15.05
2023-04-02T13:16:19.700Z,14.96
2023-04-02T13:18:49.701Z,14.90
2023-04-02T13:21:17.546Z,14.78
2023-04-02T13:23:46.087Z,14.71
2023-04-02T13:26:21.937Z,14.66
2023-04-02T13:29:04.693Z,14.62
2023-04-02T13:31:33.298Z,14.42
2023-04-02T13:34:01.405Z,14.32
2023-04-02T13:36:29.288Z,14.30
2023-04-02T13:38:57.461Z,14.26
2023-04-02T13:41:40.289Z,14.18
2023-04-02T13:44:17.950Z,14.18
2023-04-02T13:46:45.573Z,14.23
2023-04-02T13:49:13.066Z,14.27
2023-04-02T13:52:10.501Z,14.29
2023-04-02T13:54:48.801Z,14.35
2023-04-02T13:57:16.524Z,14.28
2023-04-02T13:59:44.031Z,14.21
2023-04-02T14:02:20.358Z,14.16
2023-04-02T14:05:02.480Z,14.16
2023-04-02T14:07:51.550Z,14.12
2023-04-02T14:10:51.054Z,14.07
2023-04-02T14:14:02.683Z,13.91
2023-04-02T14:16:52.229Z,13.82
2023-04-02T14:19:31.649Z,13.80
2023-04-02T14:22:23.376Z,13.74
2023-04-02T14:25:26.032Z,13.67
2023-04-02T14:28:20.454Z,13.59
2023-04-02T14:31:14.895Z,13.59
2023-04-02T14:34:00.753Z,13.39
2023-04-02T14:36:51.038Z,13.39
2023-04-02T14:40:10.281Z,13.47
2023-04-02T14:43:00.324Z,13.46
2023-04-02T14:46:05.815Z,13.47
2023-04-02T14:48:54.283Z,13.52
2023-04-02T14:51:52.798Z,13.53
2023-04-02T14:54:26.011Z,13.61
2023-04-02T14:57:23.479Z,13.61
2023-04-02T15:00:10.687Z,13.54
2023-04-02T15:03:11.132Z,13.46
2023-04-02T15:05:46.236Z,13.37
2023-04-02T15:08:35.073Z,13.38
2023-04-02T15:11:31.210Z,13.28
2023-04-02T15:14:13.029Z,13.24
2023-04-02T15:16:40.877Z,13.20
2023-04-02T15:19:16.419Z,13.19
2023-04-02T15:22:14.858Z,13.15
2023-04-02T15:24:57.262Z,13.15
2023-04-02T15:27:52.523Z,13.06
2023-04-02T15:30:37.043Z,13.06
2023-04-02T15:33:27.321Z,13.04
2023-04-02T15:36:17.296Z,13.10
2023-04-02T15:38:53.214Z,13.18
2023-04-02T15:41:27.407Z,13.12
2023-04-02T15:44:13.557Z,13.05
2023-04-02T15:47:10.230Z,12.97
2023-04-02T15:50:17.121Z,12.90
2023-04-02T15:53:09.914Z,12.85
2023-04-02T15:55:49.279Z,12.81
2023-04-02T15:58:53.300Z,12.73
2023-04-02T16:01:50.073Z,12.69
2023-04-02T16:04:42.932Z,12.58
2023-04-02T16:08:00.622Z,12.54
2023-04-02T16:10:42.331Z,12.58
2023-04-02T16:13:36.814Z,12.52
2023-04-02T16:16:33.861Z,12.49
2023-04-02T16:19:17.334Z,12.44
2023-04-02T16:21:56.578Z,12.41
2023-04-02T16:24:24.334Z,12.38
2023-04-02T16:26:57.281Z,12.43
2023-04-02T16:29:55.028Z,12.36
2023-04-02T16:32:28.172Z,12.41
2023-04-02T16:38:28.926Z,12.34
2023-04-02T16:41:27.580Z,12.37
2023-04-02T16:44:21.703Z,12.41
2023-04-02T16:47:40.189Z,12.41
2023-04-02T16:50:34.490Z,12.28
2023-04-02T16:53:47.763Z,12.32
2023-04-02T16:57:05.144Z,12.15
2023-04-02T16:59:39.415Z,12.04
2023-04-02T17:02:24.264Z,11.97
2023-04-02T17:05:31.046Z,11.92
2023-04-02T17:08:30.088Z,11.81
2023-04-02T17:11:06.956Z,11.81
2023-04-02T17:14:05.797Z,11.86
2023-04-02T17:16:46.188Z,11.85
2023-04-02T17:19:17.116Z,11.77
2023-04-02T17:21:52.527Z,11.78
2023-04-02T17:24:33.863Z,11.61
2023-04-02T17:27:20.230Z,11.60
2023-04-02T17:29:52.889Z,11.61
2023-04-02T17:32:36.870Z,11.59
2023-04-02T17:35:59.418Z,11.54
2023-04-02T17:38:48.447Z,11.46
2023-04-02T17:41:31.767Z,11.43
2023-04-02T17:44:45.838Z,11.33
2023-04-02T17:47:23.077Z,11.32
2023-04-02T17:50:17.549Z,11.25
2023-04-02T17:52:53.112Z,11.29
2023-04-02T17:55:41.949Z,11.21
2023-04-02T17:58:37.276Z,11.25
2023-04-02T18:01:28.075Z,11.07
2023-04-02T18:04:36.318Z,11.09
2023-04-02T18:07:40.193Z,11.03
2023-04-02T18:10:38.673Z,11.02
2023-04-02T18:13:30.769Z,10.94
2023-04-02T18:16:37.817Z,10.96
2023-04-02T18:19:29.380Z,10.90
2023-04-02T18:22:40.929Z,10.79
2023-04-02T18:26:04.118Z,10.77
2023-04-02T18:28:41.527Z,10.75
2023-04-02T18:31:33.308Z,10.70
2023-04-02T18:34:17.678Z,10.56
2023-04-02T18:37:19.513Z,10.52
2023-04-02T18:40:15.582Z,10.48
2023-04-02T18:43:32.858Z,10.39
2023-04-02T18:46:29.166Z,10.33
2023-04-02T18:49:03.619Z,10.29
2023-04-02T18:51:37.301Z,10.27
2023-04-02T18:54:22.584Z,10.09
2023-04-02T18:56:50.097Z,10.11
2023-04-02T18:59:57.358Z,9.95
2023-04-02T19:02:51.992Z,9.93
2023-04-02T19:05:35.545Z,9.91
2023-04-02T19:08:16.234Z,9.89
2023-04-02T19:10:47.926Z,9.95
2023-04-02T19:13:18.833Z,9.88
2023-04-02T19:15:58.390Z,9.84
2023-04-02T19:18:49.108Z,9.84
2023-04-02T19:21:46.027Z,9.79
2023-04-02T19:24:58.523Z,9.74
2023-04-02T19:27:53.759Z,9.75
2023-04-02T19:30:53.472Z,9.63
2023-04-02T19:33:47.949Z,9.56
2023-04-02T19:36:41.495Z,9.65
2023-04-02T19:39:35.504Z,9.58
2023-04-02T19:42:31.119Z,9.57
2023-04-02T19:44:58.973Z,9.48
2023-04-02T19:47:26.742Z,9.39
2023-04-02T19:49:55.687Z,9.42
2023-04-02T19:52:23.178Z,9.45
2023-04-02T19:54:50.686Z,9.45
2023-04-02T19:57:18.303Z,9.30
2023-04-02T19:59:45.899Z,9.31
2023-04-02T20:02:13.477Z,9.35
2023-04-02T20:04:40.988Z,9.43
2023-04-02T20:07:08.511Z,9.33
2023-04-02T20:09:35.967Z,9.29
2023-04-02T20:12:04.059Z,9.22
2023-04-02T20:14:31.538Z,9.20
2023-04-02T20:16:59.110Z,9.19
2023-04-02T20:19:26.687Z,9.12
2023-04-02T20:21:54.174Z,9.13
2023-04-02T20:24:21.674Z,9.05
2023-04-02T20:26:49.393Z,9.06
2023-04-02T20:29:16.984Z,9.01
2023-04-02T20:31:44.492Z,9.00
2023-04-02T20:34:12.138Z,9.05
2023-04-02T20:36:39.936Z,9.11
2023-04-02T20:39:09.062Z,9.12
2023-04-02T20:41:36.568Z,9.15
2023-04-02T20:44:04.063Z,9.17
2023-04-02T20:46:31.606Z,9.16
2023-04-02T20:48:59.089Z,9.15
2023-04-02T20:51:26.576Z,9.14
2023-04-02T20:53:54.369Z,9.15
2023-04-02T20:56:26.393Z,9.13
2023-04-02T20:58:53.878Z,9.11
2023-04-02T21:01:29.199Z,9.06
2023-04-02T21:03:59.434Z,9.04
2023-04-02T21:06:33.520Z,9.06
2023-04-02T21:09:05.365Z,9.09
2023-04-02T21:11:36.431Z,9.08
2023-04-02T21:14:04.287Z,9.06
2023-04-02T21:16:32.425Z,9.07
2023-04-02T21:19:04.533Z,9.06
2023-04-02T21:21:32.740Z,9.05
2023-04-02T21:24:03.696Z,9.06
2023-04-02T21:26:34.925Z,9.11
2023-04-02T21:29:04.065Z,9.07
2023-04-02T21:31:39.390Z,8.99
2023-04-02T21:34:09.310Z,8.89
2023-04-02T21:36:41.749Z,8.93
2023-04-02T21:39:15.915Z,8.96
2023-04-02T21:41:46.616Z,8.97
2023-04-02T21:44:16.866Z,8.97
2023-04-02T21:46:44.863Z,8.91
2023-04-02T21:49:16.175Z,8.81
2023-04-02T21:51:46.527Z,8.76
2023-04-02T21:54:14.066Z,8.74
2023-04-02T21:56:46.386Z,8.76
2023-04-02T21:59:16.860Z,8.74
2023-04-02T22:01:50.519Z,8.74
2023-04-02T22:04:25.013Z,8.84
2023-04-02T22:06:53.575Z,8.86
2023-04-02T22:09:24.625Z,8.77
2023-04-02T22:11:58.608Z,8.70
2023-04-02T22:14:27.327Z,8.69
2023-04-02T22:16:55.160Z,8.81
2023-04-02T22:19:22.772Z,8.90
2023-04-02T22:21:50.506Z,8.95
2023-04-02T22:24:21.840Z,8.94
2023-04-02T22:26:49.428Z,8.87
2023-04-02T22:29:17.125Z,8.76
2023-04-02T22:31:45.458Z,8.75
2023-04-02T22:34:13.043Z,8.81
2023-04-02T22:36:41.168Z,8.91
2023-04-02T22:39:11.949Z,8.93
2023-04-02T22:41:39.528Z,8.94
2023-04-02T22:44:07.248Z,8.93
2023-04-02T22:46:35.061Z,8.94
2023-04-02T22:49:03.148Z,8.97
2023-04-02T22:51:30.967Z,8.98
2023-04-02T22:53:58.462Z,8.96
2023-04-02T22:56:31.625Z,8.95
2023-04-02T22:58:59.383Z,8.94
2023-04-02T23:01:33.000Z,8.97
2023-04-02T23:04:00.859Z,9.01
2023-04-02T23:06:28.864Z,9.05
2023-04-02T23:08:56.780Z,9.07
2023-04-02T23:11:27.644Z,9.08
2023-04-02T23:13:57.427Z,9.07
2023-04-02T23:16:27.823Z,9.06
2023-04-02T23:18:56.546Z,9.11
2023-04-02T23:21:25.068Z,9.11
2023-04-02T23:23:53.038Z,9.13
2023-04-02T23:26:31.349Z,9.12
2023-04-02T23:29:00.365Z,9.12
2023-04-02T23:31:28.284Z,9.14
2023-04-02T23:33:55.821Z,9.17
2023-04-02T23:36:24.912Z,9.16
2023-04-02T23:38:55.318Z,9.15
2023-04-02T23:41:26.685Z,9.12
2023-04-02T23:43:56.114Z,9.14
2023-04-02T23:46:24.777Z,9.11
2023-04-02T23:48:52.985Z,9.09
2023-04-02T23:51:21.588Z,9.01
2023-04-02T23:53:50.586Z,8.99
2023-04-02T23:56:19.142Z,8.99
2023-04-02T23:58:46.669Z,9.03
